Time;durP1;ratioP1;P1;durP2;ratioP2;P2;SDS_P1;SDS_P2;PMS_P1;PMS_P2;Temp;Humidity;BMP_temperature;BMP_pressure;BME280_temperature;BME280_humidity;BME280_pressure;Samples;Min_cycle;Max_cycle;Signal;HPM_P1;HPM_P2
2021/05/28 00:01:22;;;;;;;;;;;10.20;99.90;;;;;;5033776;28;19909;-83
2021/05/28 00:03:47;;;;;;;;;;;10.20;99.90;;;;;;5034525;28;19913;-83
2021/05/28 00:06:13;;;;;;;;;;;10.20;99.90;;;;;;5034884;28;19909;-82
2021/05/28 00:08:39;;;;;;;;;;;10.10;99.90;;;;;;5034118;28;19913;-83
2021/05/28 00:11:04;;;;;;;;;;;10.10;99.90;;;;;;5037769;28;19930;-84
2021/05/28 00:13:30;;;;;;;;;;;10.00;99.90;;;;;;5039081;28;19913;-84
2021/05/28 00:15:56;;;;;;;;;;;9.90;99.90;;;;;;5035087;28;19965;-82
2021/05/28 00:18:21;;;;;;;;;;;9.90;99.90;;;;;;5034011;28;19909;-82
2021/05/28 00:20:47;;;;;;;;;;;9.80;99.90;;;;;;5034754;28;19909;-82
2021/05/28 00:23:12;;;;;;;;;;;9.70;99.90;;;;;;5033457;28;20373;-84
2021/05/28 00:25:38;;;;;;;;;;;9.70;99.90;;;;;;5035205;28;19917;-82
2021/05/28 00:28:03;;;;;;;;;;;9.60;99.90;;;;;;5035397;28;20271;-82
2021/05/28 00:30:29;;;;;;;;;;;9.60;99.90;;;;;;5034201;28;20456;-82
2021/05/28 00:32:54;;;;;;;;;;;9.50;99.90;;;;;;5033811;28;19931;-83
2021/05/28 00:35:20;;;;;;;;;;;9.50;99.90;;;;;;5033106;28;19913;-81
2021/05/28 00:37:45;;;;;;;;;;;9.50;99.90;;;;;;5033517;28;20345;-82
2021/05/28 00:40:12;;;;;;;;;;;9.50;99.90;;;;;;5032902;28;19909;-82
2021/05/28 00:42:37;;;;;;;;;;;9.50;99.90;;;;;;5033484;28;20404;-82
2021/05/28 00:45:04;;;;;;;;;;;9.20;99.90;;;;;;5033433;28;19909;-81
2021/05/28 00:47:29;;;;;;;;;;;9.30;99.90;;;;;;5034820;28;19913;-82
2021/05/28 00:49:55;;;;;;;;;;;9.30;99.90;;;;;;5034043;28;19916;-84
2021/05/28 00:52:20;;;;;;;;;;;9.30;99.90;;;;;;5033115;28;20339;-82
2021/05/28 00:54:46;;;;;;;;;;;9.30;99.90;;;;;;5035501;28;19909;-81
2021/05/28 00:57:12;;;;;;;;;;;9.30;99.90;;;;;;5033437;28;20296;-82
2021/05/28 00:59:38;;;;;;;;;;;9.30;99.90;;;;;;5034111;28;19909;-82
2021/05/28 01:02:03;;;;;;;;;;;9.20;99.90;;;;;;5034675;28;20293;-82
2021/05/28 01:04:29;;;;;;;;;;;9.20;99.90;;;;;;5033198;28;19913;-82
2021/05/28 01:06:54;;;;;;;;;;;9.20;99.90;;;;;;5034719;28;19909;-82
2021/05/28 01:09:20;;;;;;;;;;;9.10;99.90;;;;;;5033887;28;19909;-83
2021/05/28 01:11:45;;;;;;;;;;;9.20;99.90;;;;;;5032750;28;19916;-83
2021/05/28 01:14:11;;;;;;;;;;;9.10;99.90;;;;;;5032775;28;19909;-82
2021/05/28 01:16:37;;;;;;;;;;;9.00;99.90;;;;;;5032732;28;19913;-82
2021/05/28 01:19:03;;;;;;;;;;;9.00;99.90;;;;;;5034007;28;19955;-82
2021/05/28 01:21:28;;;;;;;;;;;9.10;99.90;;;;;;5031681;28;19992;-82
2021/05/28 01:23:54;;;;;;;;;;;8.90;99.90;;;;;;5033800;28;19952;-82
2021/05/28 01:26:19;;;;;;;;;;;8.90;99.90;;;;;;5032950;28;19966;-82
2021/05/28 01:28:45;;;;;;;;;;;8.90;99.90;;;;;;5033949;28;20143;-82
2021/05/28 01:31:11;;;;;;;;;;;8.90;99.90;;;;;;5032229;28;19913;-82
2021/05/28 01:33:43;;;;;;;;;;;8.90;99.90;;;;;;5032521;28;19964;-82
2021/05/28 01:36:09;;;;;;;;;;;8.90;99.90;;;;;;5032692;28;20357;-82
2021/05/28 01:38:35;;;;;;;;;;;8.80;99.90;;;;;;5032220;28;19916;-82
2021/05/28 01:41:01;;;;;;;;;;;8.90;99.90;;;;;;5032181;28;19910;-82
2021/05/28 01:43:27;;;;;;;;;;;8.80;99.90;;;;;;5032894;28;19936;-82
2021/05/28 01:45:52;;;;;;;;;;;8.80;99.90;;;;;;5033981;28;20374;-83
2021/05/28 01:48:18;;;;;;;;;;;8.80;99.90;;;;;;5032326;28;19913;-83
2021/05/28 01:50:47;;;;;;;;;;;8.80;99.90;;;;;;5032281;28;19916;-82
2021/05/28 01:53:14;;;;;;;;;;;8.70;99.90;;;;;;5033621;28;19916;-82
2021/05/28 01:55:40;;;;;;;;;;;8.70;99.90;;;;;;5032921;28;19923;-82
2021/05/28 01:58:10;;;;;;;;;;;8.60;99.90;;;;;;5048746;28;20000;-83
2021/05/28 02:00:35;;;;;;;;;;;8.70;99.90;;;;;;5032436;28;19916;-82
2021/05/28 02:03:01;;;;;;;;;;;8.60;99.90;;;;;;5032355;28;19913;-82
2021/05/28 02:05:26;;;;;;;;;;;8.70;99.90;;;;;;5034018;28;19980;-83
2021/05/28 02:07:52;;;;;;;;;;;8.70;99.90;;;;;;5033687;28;19960;-82
2021/05/28 02:10:17;;;;;;;;;;;8.60;99.90;;;;;;5033866;28;19917;-81
2021/05/28 02:12:43;;;;;;;;;;;8.60;99.90;;;;;;5034555;28;19916;-82
2021/05/28 02:15:09;;;;;;;;;;;8.60;99.90;;;;;;5032523;28;20266;-82
2021/05/28 02:17:34;;;;;;;;;;;8.70;99.90;;;;;;5033834;28;20514;-82
2021/05/28 02:20:00;;;;;;;;;;;8.60;99.90;;;;;;5032337;28;20262;-82
2021/05/28 02:22:26;;;;;;;;;;;8.50;99.90;;;;;;5031850;28;19916;-82
2021/05/28 02:24:52;;;;;;;;;;;8.50;99.90;;;;;;5034063;28;19909;-83
2021/05/28 02:27:17;;;;;;;;;;;8.50;99.90;;;;;;5033430;28;19909;-83
2021/05/28 02:29:43;;;;;;;;;;;8.50;99.90;;;;;;5032038;28;19916;-82
2021/05/28 02:32:09;;;;;;;;;;;8.50;99.90;;;;;;5031785;28;19975;-82
2021/05/28 02:34:34;;;;;;;;;;;8.50;99.90;;;;;;5031721;28;19910;-83
2021/05/28 02:37:00;;;;;;;;;;;8.50;99.90;;;;;;5033136;28;19948;-82
2021/05/28 02:39:25;;;;;;;;;;;8.60;99.90;;;;;;5031866;28;20389;-82
2021/05/28 02:41:51;;;;;;;;;;;8.70;99.90;;;;;;5033470;28;19910;-83
2021/05/28 02:44:16;;;;;;;;;;;8.70;99.90;;;;;;5032554;28;20255;-81
2021/05/28 02:46:42;;;;;;;;;;;8.80;99.90;;;;;;5031877;28;19989;-82
2021/05/28 02:49:09;;;;;;;;;;;8.80;99.90;;;;;;5033390;28;20004;-85
2021/05/28 02:51:34;;;;;;;;;;;8.80;99.90;;;;;;5031306;28;19909;-82
2021/05/28 02:54:00;;;;;;;;;;;8.90;99.90;;;;;;5034025;28;19909;-83
2021/05/28 02:56:25;;;;;;;;;;;8.90;99.90;;;;;;5031780;28;19920;-82
2021/05/28 02:58:51;;;;;;;;;;;8.90;99.90;;;;;;5034103;28;20651;-83
2021/05/28 03:01:16;;;;;;;;;;;8.90;99.90;;;;;;5031828;28;19971;-83
2021/05/28 03:03:42;;;;;;;;;;;8.90;99.90;;;;;;5032342;28;19909;-83
2021/05/28 03:06:07;;;;;;;;;;;8.90;99.90;;;;;;5032049;28;20369;-82
2021/05/28 03:08:33;;;;;;;;;;;8.90;99.90;;;;;;5032537;28;19916;-81
2021/05/28 03:10:59;;;;;;;;;;;8.80;99.90;;;;;;5032895;28;20369;-82
2021/05/28 03:13:25;;;;;;;;;;;8.80;99.90;;;;;;5032361;28;19913;-83
2021/05/28 03:15:50;;;;;;;;;;;8.80;99.90;;;;;;5032538;28;19952;-82
2021/05/28 03:18:18;;;;;;;;;;;8.80;99.90;;;;;;5033916;28;19909;-82
2021/05/28 03:20:49;;;;;;;;;;;8.80;99.90;;;;;;5033294;28;20369;-82
2021/05/28 03:23:15;;;;;;;;;;;8.80;99.90;;;;;;5032442;28;19917;-82
2021/05/28 03:25:42;;;;;;;;;;;8.90;99.90;;;;;;5033938;28;19913;-82
2021/05/28 03:28:08;;;;;;;;;;;8.90;99.90;;;;;;5033336;28;19916;-82
2021/05/28 03:30:34;;;;;;;;;;;8.80;99.90;;;;;;5031358;28;19909;-82
2021/05/28 03:32:59;;;;;;;;;;;8.80;99.90;;;;;;5030647;28;20043;-82
2021/05/28 03:35:25;;;;;;;;;;;8.80;99.90;;;;;;5031449;28;20380;-84
2021/05/28 03:37:50;;;;;;;;;;;8.70;99.90;;;;;;5031964;28;19917;-82
2021/05/28 03:40:16;;;;;;;;;;;8.70;99.90;;;;;;5031028;28;19916;-82
2021/05/28 03:42:41;;;;;;;;;;;8.80;99.90;;;;;;5031261;28;19932;-84
2021/05/28 03:45:07;;;;;;;;;;;8.80;99.90;;;;;;5031106;28;19913;-82
2021/05/28 03:47:33;;;;;;;;;;;8.80;99.90;;;;;;5031253;28;19910;-84
2021/05/28 03:49:59;;;;;;;;;;;8.90;99.90;;;;;;5030996;28;19917;-84
2021/05/28 03:52:24;;;;;;;;;;;9.00;99.90;;;;;;5031386;28;19981;-82
2021/05/28 03:54:50;;;;;;;;;;;9.10;99.90;;;;;;5030775;28;19909;-82
2021/05/28 03:57:16;;;;;;;;;;;9.20;99.90;;;;;;5030288;28;20392;-82
2021/05/28 03:59:41;;;;;;;;;;;9.30;99.90;;;;;;5029758;28;20388;-83
2021/05/28 04:02:07;;;;;;;;;;;9.30;99.90;;;;;;5031929;28;19960;-82
2021/05/28 04:04:33;;;;;;;;;;;9.30;99.90;;;;;;5030794;28;19910;-82
2021/05/28 04:06:59;;;;;;;;;;;9.40;99.90;;;;;;5032447;28;19920;-82
2021/05/28 04:09:25;;;;;;;;;;;9.50;99.90;;;;;;5031888;28;19909;-83
2021/05/28 04:11:50;;;;;;;;;;;9.50;99.90;;;;;;5032845;28;20394;-82
2021/05/28 04:14:16;;;;;;;;;;;9.50;99.90;;;;;;5031891;28;19995;-83
2021/05/28 04:16:41;;;;;;;;;;;9.50;99.90;;;;;;5030252;28;19920;-83
2021/05/28 04:19:08;;;;;;;;;;;9.40;99.90;;;;;;5029751;28;19946;-83
2021/05/28 04:21:34;;;;;;;;;;;9.50;99.90;;;;;;5031294;28;19909;-84
2021/05/28 04:24:00;;;;;;;;;;;9.40;99.90;;;;;;5030024;28;20392;-82
2021/05/28 04:26:26;;;;;;;;;;;9.40;99.90;;;;;;5031147;28;19941;-82
2021/05/28 04:28:51;;;;;;;;;;;9.50;99.90;;;;;;5031585;28;19916;-83
2021/05/28 04:31:17;;;;;;;;;;;9.40;99.90;;;;;;5032786;28;19921;-83
2021/05/28 04:33:42;;;;;;;;;;;9.50;99.90;;;;;;5032206;28;19913;-84
2021/05/28 04:36:08;;;;;;;;;;;9.40;99.90;;;;;;5031853;28;19913;-83
2021/05/28 04:38:33;;;;;;;;;;;9.50;99.90;;;;;;5032154;28;20385;-84
2021/05/28 04:40:59;;;;;;;;;;;9.50;99.90;;;;;;5031014;28;19946;-83
2021/05/28 04:43:25;;;;;;;;;;;9.50;99.90;;;;;;5031781;28;19958;-84
2021/05/28 04:45:50;;;;;;;;;;;9.50;99.90;;;;;;5031853;28;20285;-85
2021/05/28 04:48:15;;;;;;;;;;;9.50;99.90;;;;;;5033629;28;19916;-83
2021/05/28 04:50:41;;;;;;;;;;;9.40;99.90;;;;;;5033689;28;19993;-82
2021/05/28 04:53:07;;;;;;;;;;;9.50;99.90;;;;;;5033130;28;19909;-83
2021/05/28 04:55:33;;;;;;;;;;;9.50;99.90;;;;;;5031810;28;19913;-84
2021/05/28 04:57:59;;;;;;;;;;;9.50;99.90;;;;;;5035700;28;19920;-82
2021/05/28 05:00:26;;;;;;;;;;;9.50;99.90;;;;;;5033768;28;20344;-83
2021/05/28 05:02:51;;;;;;;;;;;9.60;99.90;;;;;;5034617;28;19995;-84
2021/05/28 05:05:17;;;;;;;;;;;9.60;99.90;;;;;;5034591;28;19948;-82
2021/05/28 05:07:43;;;;;;;;;;;9.60;99.90;;;;;;5035085;28;19913;-82
2021/05/28 05:10:09;;;;;;;;;;;9.50;99.90;;;;;;5033519;28;19919;-82
2021/05/28 05:12:35;;;;;;;;;;;9.60;99.90;;;;;;5033105;28;19949;-83
2021/05/28 05:15:01;;;;;;;;;;;9.50;99.90;;;;;;5033000;28;19932;-84
2021/05/28 05:17:26;;;;;;;;;;;9.50;99.90;;;;;;5033140;28;20302;-82
2021/05/28 05:19:52;;;;;;;;;;;9.40;99.90;;;;;;5034081;28;20259;-82
2021/05/28 05:22:17;;;;;;;;;;;9.40;99.90;;;;;;5034987;28;19947;-83
2021/05/28 05:24:43;;;;;;;;;;;9.40;99.90;;;;;;5034048;28;19917;-82
2021/05/28 05:27:08;;;;;;;;;;;9.50;99.90;;;;;;5034757;28;20004;-82
2021/05/28 05:29:34;;;;;;;;;;;9.40;99.90;;;;;;5033120;28;20312;-83
2021/05/28 05:31:59;;;;;;;;;;;9.50;99.90;;;;;;5034965;28;20487;-83
2021/05/28 05:34:28;;;;;;;;;;;9.50;99.90;;;;;;5033026;28;19913;-82
2021/05/28 05:36:53;;;;;;;;;;;9.50;99.90;;;;;;5035206;28;19936;-84
2021/05/28 05:39:21;;;;;;;;;;;9.50;99.90;;;;;;5033566;28;19919;-82
2021/05/28 05:41:47;;;;;;;;;;;9.60;99.90;;;;;;5033098;28;19931;-82
2021/05/28 05:44:13;;;;;;;;;;;9.60;99.90;;;;;;5035668;28;19909;-83
2021/05/28 05:46:39;;;;;;;;;;;9.60;99.90;;;;;;5033808;28;19913;-83
2021/05/28 05:49:05;;;;;;;;;;;9.60;99.90;;;;;;5034161;28;19913;-82
2021/05/28 05:51:30;;;;;;;;;;;9.50;99.90;;;;;;5033907;28;19909;-83
2021/05/28 05:53:56;;;;;;;;;;;9.50;99.90;;;;;;5034658;28;19910;-84
2021/05/28 05:56:21;;;;;;;;;;;9.60;99.90;;;;;;5034297;28;20345;-82
2021/05/28 05:58:47;;;;;;;;;;;9.50;99.90;;;;;;5032707;28;19909;-87
2021/05/28 06:01:13;;;;;;;;;;;9.60;99.90;;;;;;5032504;28;20005;-83
2021/05/28 06:03:38;;;;;;;;;;;9.60;99.90;;;;;;5032656;28;20226;-83
2021/05/28 06:06:04;;;;;;;;;;;9.50;99.90;;;;;;5032741;28;19968;-82
2021/05/28 06:08:29;;;;;;;;;;;9.60;99.90;;;;;;5031821;28;19917;-82
2021/05/28 06:10:55;;;;;;;;;;;9.60;99.90;;;;;;5034699;28;20003;-82
2021/05/28 06:13:20;;;;;;;;;;;9.70;99.90;;;;;;5032355;28;19930;-84
2021/05/28 06:15:46;;;;;;;;;;;9.70;99.90;;;;;;5032755;28;19917;-83
2021/05/28 06:18:11;;;;;;;;;;;9.70;99.90;;;;;;5033969;28;19915;-82
2021/05/28 06:20:37;;;;;;;;;;;9.60;99.90;;;;;;5032262;28;20392;-83
2021/05/28 06:23:02;;;;;;;;;;;9.60;99.90;;;;;;5032734;28;19917;-81
2021/05/28 06:25:28;;;;;;;;;;;9.70;99.90;;;;;;5032612;28;19909;-82
2021/05/28 06:27:53;;;;;;;;;;;9.70;99.90;;;;;;5033435;28;19954;-82
2021/05/28 06:30:19;;;;;;;;;;;9.60;99.90;;;;;;5031644;28;20327;-82
2021/05/28 06:32:45;;;;;;;;;;;9.60;99.90;;;;;;5033607;28;20366;-83
2021/05/28 06:35:11;;;;;;;;;;;9.60;99.90;;;;;;5032626;28;19909;-82
2021/05/28 06:37:36;;;;;;;;;;;9.70;99.90;;;;;;5031984;28;19909;-82
2021/05/28 06:40:03;;;;;;;;;;;9.70;99.90;;;;;;5031627;28;19909;-82
2021/05/28 06:42:28;;;;;;;;;;;9.70;99.90;;;;;;5032962;28;19932;-83
2021/05/28 06:44:54;;;;;;;;;;;9.70;99.90;;;;;;5033526;28;19910;-82
2021/05/28 06:47:19;;;;;;;;;;;9.70;99.90;;;;;;5031896;28;20358;-84
2021/05/28 06:49:45;;;;;;;;;;;9.70;99.90;;;;;;5033123;28;19931;-82
2021/05/28 06:52:10;;;;;;;;;;;9.70;99.90;;;;;;5032754;28;19909;-82
2021/05/28 06:54:36;;;;;;;;;;;9.70;99.90;;;;;;5032859;28;20377;-82
2021/05/28 06:57:02;;;;;;;;;;;9.70;99.90;;;;;;5033309;28;19913;-83
2021/05/28 06:59:28;;;;;;;;;;;9.70;99.90;;;;;;5032370;28;19913;-84
2021/05/28 07:01:54;;;;;;;;;;;9.70;99.90;;;;;;5033400;28;19909;-82
2021/05/28 07:04:20;;;;;;;;;;;9.80;99.90;;;;;;5033058;28;19909;-82
2021/05/28 07:06:45;;;;;;;;;;;9.80;99.90;;;;;;5031481;28;19917;-84
2021/05/28 07:09:11;;;;;;;;;;;9.90;99.90;;;;;;5031475;28;19909;-82
2021/05/28 07:11:37;;;;;;;;;;;10.00;99.90;;;;;;5032648;28;19909;-82
2021/05/28 07:14:02;;;;;;;;;;;10.00;99.90;;;;;;5031774;28;19909;-82
2021/05/28 07:16:28;;;;;;;;;;;10.10;99.90;;;;;;5031421;28;19966;-84
2021/05/28 07:18:54;;;;;;;;;;;10.20;99.90;;;;;;5030232;28;19909;-85
2021/05/28 07:21:20;;;;;;;;;;;10.30;99.90;;;;;;5032215;28;19909;-82
2021/05/28 07:23:45;;;;;;;;;;;10.30;99.90;;;;;;5033577;28;20004;-83
2021/05/28 07:26:11;;;;;;;;;;;10.30;99.90;;;;;;5031505;28;19958;-82
2021/05/28 07:28:36;;;;;;;;;;;10.40;99.90;;;;;;5033552;28;19910;-84
2021/05/28 07:31:02;;;;;;;;;;;10.40;99.90;;;;;;5032479;28;19910;-83
2021/05/28 07:33:27;;;;;;;;;;;10.40;99.90;;;;;;5031754;28;19961;-82
2021/05/28 07:35:53;;;;;;;;;;;10.40;99.90;;;;;;5032549;28;19913;-81
2021/05/28 07:38:19;;;;;;;;;;;10.40;99.90;;;;;;5031544;28;20425;-83
2021/05/28 07:40:45;;;;;;;;;;;10.60;99.90;;;;;;5032058;28;19969;-84
2021/05/28 07:43:10;;;;;;;;;;;10.60;99.90;;;;;;5032971;28;19945;-81
2021/05/28 07:45:37;;;;;;;;;;;10.70;99.90;;;;;;5031474;28;20073;-81
2021/05/28 07:48:03;;;;;;;;;;;10.70;99.90;;;;;;5031150;28;19910;-83
2021/05/28 07:50:44;;;;;;;;;;;10.70;99.90;;;;;;5030750;28;19915;-82
2021/05/28 07:53:11;;;;;;;;;;;10.80;99.90;;;;;;5031510;28;19909;-84
2021/05/28 07:55:36;;;;;;;;;;;10.80;99.90;;;;;;5030953;28;20390;-82
2021/05/28 07:58:02;;;;;;;;;;;10.90;99.90;;;;;;5031409;28;19951;-83
2021/05/28 08:00:27;;;;;;;;;;;11.00;99.90;;;;;;5030576;28;19916;-82
2021/05/28 08:02:53;;;;;;;;;;;11.00;99.90;;;;;;5031161;28;19910;-83
2021/05/28 08:05:18;;;;;;;;;;;11.00;99.90;;;;;;5030928;28;19913;-82
2021/05/28 08:07:44;;;;;;;;;;;11.00;99.40;;;;;;5031108;28;19909;-82
2021/05/28 08:10:09;;;;;;;;;;;11.00;99.60;;;;;;5031877;28;20331;-82
2021/05/28 08:12:35;;;;;;;;;;;11.00;99.70;;;;;;5031050;28;19931;-84
2021/05/28 08:15:00;;;;;;;;;;;11.10;99.80;;;;;;5030853;28;19909;-82
2021/05/28 08:17:26;;;;;;;;;;;11.10;99.70;;;;;;5032692;28;19949;-83
2021/05/28 08:19:51;;;;;;;;;;;11.20;99.80;;;;;;5030541;28;19909;-82
2021/05/28 08:22:17;;;;;;;;;;;11.20;99.60;;;;;;5031496;28;20373;-82
2021/05/28 08:24:42;;;;;;;;;;;11.20;99.70;;;;;;5032218;28;19913;-81
2021/05/28 08:27:08;;;;;;;;;;;11.20;99.60;;;;;;5031197;28;20465;-82
2021/05/28 08:29:33;;;;;;;;;;;11.30;99.70;;;;;;5030879;28;19916;-83
2021/05/28 08:31:59;;;;;;;;;;;11.40;99.50;;;;;;5033354;28;19920;-82
2021/05/28 08:34:24;;;;;;;;;;;11.30;98.90;;;;;;5034660;28;19909;-82
2021/05/28 08:36:50;;;;;;;;;;;11.30;99.00;;;;;;5035202;28;19913;-83
2021/05/28 08:39:16;;;;;;;;;;;11.20;99.10;;;;;;5033458;28;19958;-84
2021/05/28 08:41:42;;;;;;;;;;;11.20;99.10;;;;;;5036728;28;20263;-82
2021/05/28 08:44:08;;;;;;;;;;;11.10;98.90;;;;;;5034183;28;19909;-82
2021/05/28 08:46:33;;;;;;;;;;;11.20;99.30;;;;;;5034000;28;20324;-82
2021/05/28 08:48:59;;;;;;;;;;;11.20;99.00;;;;;;5033306;28;19921;-82
2021/05/28 08:51:24;;;;;;;;;;;11.30;99.10;;;;;;5034383;28;20012;-82
2021/05/28 08:53:50;;;;;;;;;;;11.30;99.10;;;;;;5034877;28;19910;-84
2021/05/28 08:56:15;;;;;;;;;;;11.30;98.90;;;;;;5033023;28;19913;-82
2021/05/28 08:58:41;;;;;;;;;;;11.40;98.60;;;;;;5034750;28;19909;-82
2021/05/28 09:01:08;;;;;;;;;;;11.40;98.50;;;;;;5034003;28;19909;-83
2021/05/28 09:03:37;;;;;;;;;;;11.40;98.40;;;;;;5033937;28;20429;-82
2021/05/28 09:06:04;;;;;;;;;;;11.50;98.40;;;;;;5034137;28;20342;-82
2021/05/28 09:08:31;;;;;;;;;;;11.50;98.40;;;;;;5032877;28;20358;-82
2021/05/28 09:11:04;;;;;;;;;;;11.50;98.20;;;;;;5032567;28;19909;-83
2021/05/28 09:13:30;;;;;;;;;;;11.50;97.90;;;;;;5033814;28;19909;-82
2021/05/28 09:16:23;;;;;;;;;;;11.50;97.90;;;;;;5032255;28;19917;-82
2021/05/28 09:18:53;;;;;;;;;;;11.60;97.90;;;;;;5029213;28;19913;-83
2021/05/28 09:21:23;;;;;;;;;;;11.60;97.70;;;;;;5033291;28;19991;-83
2021/05/28 09:23:50;;;;;;;;;;;11.60;97.60;;;;;;5033367;28;19960;-82
2021/05/28 09:26:15;;;;;;;;;;;11.60;97.20;;;;;;5032095;28;20285;-82
2021/05/28 09:28:43;;;;;;;;;;;11.70;96.70;;;;;;5031913;28;19992;-82
2021/05/28 09:31:10;;;;;;;;;;;11.70;96.40;;;;;;5030820;28;19909;-82
2021/05/28 09:33:40;;;;;;;;;;;11.70;96.40;;;;;;5031105;28;20330;-82
2021/05/28 09:36:06;;;;;;;;;;;11.70;96.50;;;;;;5031203;28;19913;-82
2021/05/28 09:38:32;;;;;;;;;;;11.80;96.20;;;;;;5032486;28;19910;-82
2021/05/28 09:40:58;;;;;;;;;;;11.80;96.00;;;;;;5031555;28;19909;-83
2021/05/28 09:43:25;;;;;;;;;;;11.90;95.30;;;;;;5032296;28;19933;-83
2021/05/28 09:45:51;;;;;;;;;;;11.90;95.40;;;;;;5034733;28;20025;-83
2021/05/28 09:48:16;;;;;;;;;;;11.90;95.50;;;;;;5034763;28;19909;-82
2021/05/28 09:50:43;;;;;;;;;;;12.00;95.50;;;;;;5032742;28;19966;-82
2021/05/28 09:53:24;;;;;;;;;;;12.00;95.40;;;;;;5034349;28;19916;-82
2021/05/28 09:55:49;;;;;;;;;;;12.10;95.40;;;;;;5035008;28;19925;-83
2021/05/28 09:58:15;;;;;;;;;;;12.10;95.00;;;;;;5033068;28;19913;-82
2021/05/28 10:00:40;;;;;;;;;;;12.20;94.80;;;;;;5032890;28;19952;-82
2021/05/28 10:03:12;;;;;;;;;;;12.20;95.00;;;;;;5034778;28;19967;-82
2021/05/28 10:05:38;;;;;;;;;;;12.20;95.20;;;;;;5034825;28;20004;-82
2021/05/28 10:08:07;;;;;;;;;;;12.30;94.60;;;;;;5034966;28;19959;-84
2021/05/28 10:10:35;;;;;;;;;;;12.30;94.90;;;;;;5034125;28;19948;-83
2021/05/28 10:13:09;;;;;;;;;;;12.30;94.70;;;;;;5032790;28;20016;-82
2021/05/28 10:15:35;;;;;;;;;;;12.50;95.00;;;;;;5034838;28;20357;-82
2021/05/28 10:18:01;;;;;;;;;;;12.60;94.10;;;;;;5032945;28;19916;-82
2021/05/28 10:20:27;;;;;;;;;;;12.60;94.30;;;;;;5034548;28;20289;-83
2021/05/28 10:22:53;;;;;;;;;;;12.60;94.50;;;;;;5032670;28;19918;-83
2021/05/28 10:25:18;;;;;;;;;;;12.60;94.60;;;;;;5035301;28;19913;-84
2021/05/28 10:27:51;;;;;;;;;;;12.70;94.30;;;;;;5034035;28;20435;-82
2021/05/28 10:30:18;;;;;;;;;;;12.70;93.70;;;;;;5031923;28;19916;-83
2021/05/28 10:33:04;;;;;;;;;;;12.70;93.10;;;;;;5033701;28;19909;-83
2021/05/28 10:35:40;;;;;;;;;;;12.80;93.50;;;;;;5032590;28;20000;-82
2021/05/28 10:38:25;;;;;;;;;;;12.80;92.80;;;;;;5033138;28;20011;-82
2021/05/28 10:40:51;;;;;;;;;;;12.80;92.50;;;;;;5032390;28;19909;-82
2021/05/28 10:43:20;;;;;;;;;;;12.90;92.70;;;;;;5032973;28;19909;-81
2021/05/28 10:45:54;;;;;;;;;;;12.90;91.90;;;;;;5034310;28;20361;-82
2021/05/28 10:48:38;;;;;;;;;;;12.90;92.10;;;;;;5034166;28;19913;-82
2021/05/28 10:51:07;;;;;;;;;;;13.00;92.30;;;;;;5032275;28;20369;-82
2021/05/28 10:53:33;;;;;;;;;;;13.00;91.90;;;;;;5032183;28;19910;-82
2021/05/28 10:56:06;;;;;;;;;;;13.00;91.50;;;;;;5032353;28;20020;-82
2021/05/28 10:58:47;;;;;;;;;;;13.00;91.30;;;;;;5033588;28;19913;-84
2021/05/28 11:01:31;;;;;;;;;;;13.10;91.30;;;;;;5032302;28;19940;-82
2021/05/28 11:03:57;;;;;;;;;;;13.10;91.10;;;;;;5032258;28;19909;-82
2021/05/28 11:06:23;;;;;;;;;;;13.10;91.20;;;;;;5033316;28;19910;-82
2021/05/28 11:08:51;;;;;;;;;;;13.20;90.00;;;;;;5032976;28;19915;-85
2021/05/28 11:11:35;;;;;;;;;;;13.20;90.10;;;;;;5031793;28;20014;-82
2021/05/28 11:14:02;;;;;;;;;;;13.20;90.50;;;;;;5032265;28;19916;-82
2021/05/28 11:16:28;;;;;;;;;;;13.30;90.90;;;;;;5033058;28;20368;-84
2021/05/28 11:18:53;;;;;;;;;;;13.30;91.30;;;;;;5031487;28;19910;-86
2021/05/28 11:21:20;;;;;;;;;;;13.30;91.40;;;;;;5032052;28;19917;-82
2021/05/28 11:23:47;;;;;;;;;;;13.40;89.90;;;;;;5031515;28;19917;-83
2021/05/28 11:26:16;;;;;;;;;;;13.50;89.20;;;;;;5034058;28;19909;-83
2021/05/28 11:28:52;;;;;;;;;;;13.60;88.10;;;;;;5031786;28;19909;-85
2021/05/28 11:31:21;;;;;;;;;;;13.60;88.00;;;;;;5033055;28;19917;-82
2021/05/28 11:33:47;;;;;;;;;;;13.60;88.50;;;;;;5032564;28;19909;-82
2021/05/28 11:36:24;;;;;;;;;;;13.60;88.60;;;;;;5033735;28;19958;-83
2021/05/28 11:38:57;;;;;;;;;;;13.60;87.00;;;;;;5030763;28;19916;-83
2021/05/28 11:41:40;;;;;;;;;;;13.60;86.10;;;;;;5030592;28;19910;-84
2021/05/28 11:44:08;;;;;;;;;;;13.70;86.30;;;;;;5030262;28;19910;-83
2021/05/28 11:46:33;;;;;;;;;;;13.60;85.50;;;;;;5029379;28;19965;-84
2021/05/28 11:49:00;;;;;;;;;;;13.60;85.60;;;;;;5028571;28;19913;-84
2021/05/28 11:51:25;;;;;;;;;;;13.70;86.60;;;;;;5030390;28;20255;-85
2021/05/28 11:53:51;;;;;;;;;;;13.70;87.00;;;;;;5030095;28;19916;-85
2021/05/28 11:56:22;;;;;;;;;;;13.80;85.50;;;;;;5029060;28;19913;-85
2021/05/28 11:58:51;;;;;;;;;;;13.90;84.20;;;;;;5028862;28;20385;-84
2021/05/28 12:01:17;;;;;;;;;;;14.00;84.70;;;;;;5029359;28;19913;-84
2021/05/28 12:03:42;;;;;;;;;;;14.00;84.50;;;;;;5029297;28;19950;-84
2021/05/28 12:06:08;;;;;;;;;;;14.10;85.00;;;;;;5030757;28;20110;-84
2021/05/28 12:08:37;;;;;;;;;;;14.10;83.10;;;;;;5032776;28;20351;-84
2021/05/28 12:11:06;;;;;;;;;;;14.10;83.40;;;;;;5032047;28;19913;-85
2021/05/28 12:13:32;;;;;;;;;;;14.10;82.60;;;;;;5033555;28;19962;-84
2021/05/28 12:16:01;;;;;;;;;;;14.20;81.50;;;;;;5033708;28;19919;-84
2021/05/28 12:18:34;;;;;;;;;;;14.30;82.30;;;;;;5032566;28;19913;-85
2021/05/28 12:21:01;;;;;;;;;;;14.50;82.90;;;;;;5032213;28;19970;-84
2021/05/28 12:23:27;;;;;;;;;;;14.50;82.30;;;;;;5032309;28;19962;-85
2021/05/28 12:26:12;;;;;;;;;;;14.60;82.20;;;;;;5032428;28;20301;-85
2021/05/28 12:28:42;;;;;;;;;;;14.70;80.60;;;;;;5032824;28;19909;-85
2021/05/28 12:31:11;;;;;;;;;;;15.00;77.20;;;;;;5031970;28;19945;-85
2021/05/28 12:33:37;;;;;;;;;;;15.10;76.90;;;;;;5032299;28;19909;-85
2021/05/28 12:36:07;;;;;;;;;;;15.20;77.80;;;;;;5032099;28;19958;-85
2021/05/28 12:38:37;;;;;;;;;;;15.20;78.10;;;;;;5032251;28;19925;-85
2021/05/28 12:41:03;;;;;;;;;;;15.20;78.80;;;;;;5031315;28;19909;-84
2021/05/28 12:43:30;;;;;;;;;;;15.20;77.30;;;;;;5033177;28;20310;-85
2021/05/28 12:45:56;;;;;;;;;;;15.30;77.50;;;;;;5031974;28;20365;-84
2021/05/28 12:48:39;;;;;;;;;;;15.30;78.30;;;;;;5032946;28;20399;-84
2021/05/28 12:51:05;;;;;;;;;;;15.30;77.20;;;;;;5031129;28;20389;-84
2021/05/28 12:53:35;;;;;;;;;;;15.40;76.10;;;;;;5032562;28;19913;-85
2021/05/28 12:56:01;;;;;;;;;;;15.30;76.40;;;;;;5031167;28;19920;-84
2021/05/28 12:58:27;;;;;;;;;;;15.20;77.90;;;;;;5032555;28;20346;-85
2021/05/28 13:00:56;;;;;;;;;;;15.20;78.50;;;;;;5030617;28;19909;-85
2021/05/28 13:03:42;;;;;;;;;;;15.10;79.00;;;;;;5032626;28;19910;-84
2021/05/28 13:06:22;;;;;;;;;;;15.10;80.20;;;;;;5031571;28;19910;-84
2021/05/28 13:08:48;;;;;;;;;;;15.10;78.40;;;;;;5031055;28;19910;-83
2021/05/28 13:11:14;;;;;;;;;;;15.10;78.10;;;;;;5031045;28;19909;-83
2021/05/28 13:13:45;;;;;;;;;;;15.20;78.80;;;;;;5031236;28;19909;-85
2021/05/28 13:16:10;;;;;;;;;;;15.20;79.10;;;;;;5031245;28;20365;-84
2021/05/28 13:18:42;;;;;;;;;;;15.20;79.40;;;;;;5032664;28;19961;-84
2021/05/28 13:21:27;;;;;;;;;;;15.20;79.40;;;;;;5031888;28;20258;-85
2021/05/28 13:23:55;;;;;;;;;;;15.20;79.40;;;;;;5032207;28;19970;-84
2021/05/28 13:26:24;;;;;;;;;;;15.20;77.40;;;;;;5032294;28;20017;-84
2021/05/28 13:28:49;;;;;;;;;;;15.30;78.40;;;;;;5030853;28;19914;-84
2021/05/28 13:31:17;;;;;;;;;;;15.30;78.20;;;;;;5029907;28;19922;-84
2021/05/28 13:33:43;;;;;;;;;;;15.30;76.30;;;;;;5031214;28;19952;-85
2021/05/28 13:36:13;;;;;;;;;;;15.30;76.90;;;;;;5032410;28;19913;-85
2021/05/28 13:38:44;;;;;;;;;;;15.30;74.10;;;;;;5031645;28;20365;-85
2021/05/28 13:41:14;;;;;;;;;;;15.30;75.40;;;;;;5032487;28;20380;-84
2021/05/28 13:43:41;;;;;;;;;;;15.40;73.90;;;;;;5031750;28;19952;-85
2021/05/28 13:46:06;;;;;;;;;;;15.40;73.30;;;;;;5033166;28;20378;-85
2021/05/28 13:48:32;;;;;;;;;;;15.60;74.60;;;;;;5031103;28;19909;-84
2021/05/28 13:50:58;;;;;;;;;;;15.70;74.50;;;;;;5030066;28;19913;-85
2021/05/28 13:53:24;;;;;;;;;;;15.70;73.70;;;;;;5030666;28;19909;-84
2021/05/28 13:55:50;;;;;;;;;;;15.70;73.00;;;;;;5030446;28;19964;-85
2021/05/28 13:58:16;;;;;;;;;;;15.80;73.40;;;;;;5030849;28;19966;-85
2021/05/28 14:00:41;;;;;;;;;;;16.00;72.40;;;;;;5031805;28;19909;-83
2021/05/28 14:03:07;;;;;;;;;;;16.20;69.50;;;;;;5035789;28;19917;-83
2021/05/28 14:05:33;;;;;;;;;;;16.30;70.30;;;;;;5034841;28;19910;-84
2021/05/28 14:08:02;;;;;;;;;;;16.60;67.80;;;;;;5035070;28;19964;-83
2021/05/28 14:10:27;;;;;;;;;;;16.80;66.60;;;;;;5034490;28;19916;-85
2021/05/28 14:12:55;;;;;;;;;;;17.20;67.50;;;;;;5035550;28;19924;-84
2021/05/28 14:15:21;;;;;;;;;;;17.50;66.90;;;;;;5035428;28;20008;-83
2021/05/28 14:17:48;;;;;;;;;;;17.70;66.10;;;;;;5036748;28;20413;-84
2021/05/28 14:20:14;;;;;;;;;;;18.00;64.40;;;;;;5035864;28;19988;-83
2021/05/28 14:22:39;;;;;;;;;;;18.20;66.00;;;;;;5037178;28;19920;-84